White Mountain, California
Current Conditions -  °F | °C
As of 1:56 AM on Thursday 27 Nov 2014 (Local Time) from KBIH Reporting Station
Clear Clear  
Wind Chill: 30°   Ceiling: Unl
Heat Index: 35°   Visibility: 10mi
Dew Point: 17°   Wind: 6mph
Humidity: 48%   Direction: 320°NW
Pressure: 30.36"   Gusts: NA
Location:  37.5°N, 118.18°W
Report Text: KBIH 270956Z AUTO 32005KT 10SM CLR 02/M08 A3036 RMK AO2 SLP258 T00171083
Loading
Personal Weather Stations






























Interactive Weather Map New forecast layout! Learn more

10-Day Weather Forecast

Advertisements
Track Severe Weather on mobile